Thursday, November 23, 2017, 7:14 AM GMT
Back to Local

CYBG, Bagotville, Que.

Location: , , Canada Lat: 48.333
Local Time: 7:14 AM GMT ( 7:14 GMT) Lon: -71
Time Zone: GMT Elev: 521 ft

Show me the last for .
Show Decoded

2017-11-23 07:00 METAR CYBG 230700Z 30009KT 15SM OVC035 M07/M10 A2998 RMK SC8 SLP163 =
2017-11-23 06:00 METAR CYBG 230600Z 29010KT 15SM -SHSN OVC030 M07/M10 A2997 RMK SC8 SLP159 =
2017-11-23 05:00 METAR CYBG 230500Z 29010KT 15SM -SHSN OVC030 M07/M09 A2998 RMK SC8 SLP165 =
2017-11-23 04:00 METAR CYBG 230400Z 28009KT 25SM -SHSN OVC030 M06/M10 A3000 RMK SC8 SLP170 =
2017-11-23 03:00 METAR CYBG 230300Z 29010KT 20SM -SHSN OVC025 M06/M09 A3001 RMK SC8 SLP174 =
2017-11-23 02:00 METAR CYBG 230200Z 29015KT 25SM -SHSN BKN025 OVC060 M06/M11 A3002 RMK SC6SC2
                 SLP175 =
2017-11-23 01:00 METAR CYBG 230100Z 27009KT 25SM FEW025 OVC060 M06/M09 A3002 RMK SC2SC6 SLP177 =
2017-11-23 00:00 METAR CYBG 230000Z 29014KT 25SM SCT030 OVC060 M05/M09 A3002 RMK SC3SC5 SLP175 =
2017-11-22 23:00 METAR CYBG 222300Z 29013KT 25SM BKN030 OVC060 M05/M08 A3001 RMK SC6SC2 SLP173 =
2017-11-22 22:00 METAR CYBG 222200Z 28013KT 25SM FEW015 OVC030 M04/M07 A3001 RMK SF2SC6 SLP173 =
2017-11-22 21:00 METAR CYBG 222100Z 28010KT 25SM -SHSN SCT015 OVC028 M04/M07 A2999 RMK SF3SC5
                 PCPN VRY LGT SLP165 =
2017-11-22 20:00 METAR CYBG 222000Z 28009KT 25SM -SHSN BKN010 OVC028 M04/M07 A2998 RMK SF5SC3
                 SLP162 =
2017-11-22 19:00 METAR CYBG 221900Z 30011KT 25SM -SN OVC012 M03/M06 A2996 RMK SF8 SLP155 =
2017-11-22 18:00 METAR CYBG 221800Z 28010KT 25SM -SN OVC012 M03/M05 A2995 RMK SF8 SLP152 =
2017-11-22 17:21 METAR CYBG 221721Z 28011KT 12SM OVC012 M03/M05 A2995 RMK SF8 VIS LWR E SLP151 =
2017-11-22 17:00 METAR CYBG 221700Z 29014KT 2SM -SN OVC012 M02/M04 A2994 RMK SF8 VIS VRB 1-3
                 SLP148 =
2017-11-22 16:00 METAR CYBG 221600Z CCA 29014KT 2SM -SN BKN009 OVC025 M02/M04 A2995 RMK SF5SC3
                 VIS VRB 1-3 SLP151 =
2017-11-22 15:00 METAR CYBG 221500Z 28013KT 1SM R11/P6000FT -SN BKN009 OVC020 M01/M02 A2995 RMK
                 SF6SC2 VIS VRB 3/4-1 1/4 /S01/ SLP152 =
2017-11-22 14:35 METAR CYBG 221435Z 29014KT 1SM R11/P6000FT -SN BKN009 OVC020 M01/M02 A2994 RMK
                 SF6SC2 VIS VRB 3/4-1 1/4 SLP147 =
2017-11-22 14:00 METAR CYBG 221400Z 28011KT 2SM -SN BR BKN007 OVC012 M00/M01 A2992 RMK SF6SC2
                 SLP143 =
2017-11-22 13:00 METAR CYBG 221300Z 28010KT 2SM -SN BR BKN006 OVC012 00/M00 A2990 RMK SF6SC2 VIS
                 VRB 1-3 SLP136 =
2017-11-22 12:27 METAR CYBG 221227Z 27010KT 2SM -SN BR OVC006 01/M00 A2990 RMK SF8 VIS VRB 1-3
                 SLP135 =
2017-11-22 12:00 METAR CYBG 221200Z 25004KT 7SM -RA FEW020 OVC045 01/01 A2988 RMK SC2SC6 SLP127 =
2017-11-22 11:00 METAR CYBG 221100Z 24004KT 10SM -RA FEW019 OVC040 02/00 A2986 RMK SC2SC6 SLP122
                 =
2017-11-22 10:00 METAR CYBG 221000Z 00000KT 25SM -FZRA FEW030 OVC060 M01/M01 A2985 RMK SC2SC6
                 SLP119 =
2017-11-22 09:00 METAR CYBG 220900Z 11005KT 25SM -FZRA FEW030 BKN060 OVC080 M01/M01 A2982 RMK
                 SC2SC5AC2 SLP109 =
2017-11-22 08:13 METAR CYBG 220813Z 10004KT 15SM -RA FEW030 BKN060 OVC090 M01/M02 A2982 RMK
                 SC2SC5AC1 SLP106 =
2017-11-22 08:00 METAR CYBG 220800Z 12004KT 15SM FEW030 BKN060 OVC090 M00/M01 A2982 RMK SC2SC5AC2
                 SLP106 =

Support USWX by starting your Amazon purchase here.